sensor_id;sensor_type;location;lat;lon;timestamp;pressure;altitude;pressure_sealevel;temperature;humidity
10176;BME280;18221;38.704;0.152;2022-11-25T00:09:38;99114.81;;;21.00;46.98
10176;BME280;18221;38.704;0.152;2022-11-25T00:12:06;99116.91;;;21.05;47.40
10176;BME280;18221;38.704;0.152;2022-11-25T00:14:36;99121.09;;;21.07;48.14
10176;BME280;18221;38.704;0.152;2022-11-25T00:17:04;99115.50;;;21.15;48.40
10176;BME280;18221;38.704;0.152;2022-11-25T00:19:32;99120.72;;;21.17;48.67
10176;BME280;18221;38.704;0.152;2022-11-25T00:22:00;99124.66;;;21.14;48.92
10176;BME280;18221;38.704;0.152;2022-11-25T00:24:28;99123.81;;;21.20;49.26
10176;BME280;18221;38.704;0.152;2022-11-25T00:26:56;99124.03;;;21.19;49.44
10176;BME280;18221;38.704;0.152;2022-11-25T00:29:24;99118.63;;;21.19;49.60
10176;BME280;18221;38.704;0.152;2022-11-25T00:31:54;99119.84;;;21.10;50.15
10176;BME280;18221;38.704;0.152;2022-11-25T00:34:27;99113.56;;;21.03;50.31
10176;BME280;18221;38.704;0.152;2022-11-25T00:36:55;99105.66;;;20.88;51.00
10176;BME280;18221;38.704;0.152;2022-11-25T00:39:23;99106.88;;;20.85;51.00
10176;BME280;18221;38.704;0.152;2022-11-25T00:41:52;99114.78;;;20.80;51.02
10176;BME280;18221;38.704;0.152;2022-11-25T00:44:37;99111.41;;;20.72;50.72
10176;BME280;18221;38.704;0.152;2022-11-25T00:47:09;99104.53;;;20.69;50.23
10176;BME280;18221;38.704;0.152;2022-11-25T00:49:39;99106.63;;;20.67;49.85
10176;BME280;18221;38.704;0.152;2022-11-25T00:52:09;99100.97;;;20.62;48.98
10176;BME280;18221;38.704;0.152;2022-11-25T00:54:39;99097.69;;;20.67;48.46
10176;BME280;18221;38.704;0.152;2022-11-25T00:57:07;99096.84;;;20.66;47.74
10176;BME280;18221;38.704;0.152;2022-11-25T00:59:35;99098.53;;;20.67;47.70
10176;BME280;18221;38.704;0.152;2022-11-25T01:02:03;99094.53;;;20.57;47.55
10176;BME280;18221;38.704;0.152;2022-11-25T01:04:33;99105.94;;;20.59;46.62
10176;BME280;18221;38.704;0.152;2022-11-25T01:07:01;99100.75;;;20.57;46.17
10176;BME280;18221;38.704;0.152;2022-11-25T01:09:30;99088.09;;;20.58;45.96
10176;BME280;18221;38.704;0.152;2022-11-25T01:11:58;99086.22;;;20.58;45.60
10176;BME280;18221;38.704;0.152;2022-11-25T01:14:26;99091.84;;;20.63;45.18
10176;BME280;18221;38.704;0.152;2022-11-25T01:16:54;99087.72;;;20.67;44.96
10176;BME280;18221;38.704;0.152;2022-11-25T01:19:22;99078.59;;;20.68;44.48
10176;BME280;18221;38.704;0.152;2022-11-25T01:21:51;99087.72;;;20.67;44.68
10176;BME280;18221;38.704;0.152;2022-11-25T01:24:19;99081.47;;;20.60;44.62
10176;BME280;18221;38.704;0.152;2022-11-25T01:26:47;99086.00;;;20.60;44.54
10176;BME280;18221;38.704;0.152;2022-11-25T01:29:18;99076.06;;;20.60;44.62
10176;BME280;18221;38.704;0.152;2022-11-25T01:31:46;99083.53;;;20.58;44.36
10176;BME280;18221;38.704;0.152;2022-11-25T01:34:17;99071.94;;;20.64;44.19
10176;BME280;18221;38.704;0.152;2022-11-25T01:36:46;99071.94;;;20.71;43.69
10176;BME280;18221;38.704;0.152;2022-11-25T01:39:18;99070.09;;;20.71;43.71
10176;BME280;18221;38.704;0.152;2022-11-25T01:41:48;99067.00;;;20.74;43.60
10176;BME280;18221;38.704;0.152;2022-11-25T01:44:17;99061.78;;;20.66;43.91
10176;BME280;18221;38.704;0.152;2022-11-25T01:46:53;99060.75;;;20.67;43.61
10176;BME280;18221;38.704;0.152;2022-11-25T01:49:30;99059.06;;;20.66;43.63
10176;BME280;18221;38.704;0.152;2022-11-25T01:52:05;99067.16;;;20.73;43.42
10176;BME280;18221;38.704;0.152;2022-11-25T01:54:41;99058.91;;;20.74;43.47
10176;BME280;18221;38.704;0.152;2022-11-25T01:57:17;99069.06;;;20.79;43.19
10176;BME280;18221;38.704;0.152;2022-11-25T01:59:51;99074.28;;;20.80;43.31
10176;BME280;18221;38.704;0.152;2022-11-25T02:02:21;99068.09;;;20.93;43.17
10176;BME280;18221;38.704;0.152;2022-11-25T02:04:49;99068.94;;;21.07;42.94
10176;BME280;18221;38.704;0.152;2022-11-25T02:07:25;99070.16;;;20.98;43.07
10176;BME280;18221;38.704;0.152;2022-11-25T02:09:56;99072.44;;;20.94;43.37
10176;BME280;18221;38.704;0.152;2022-11-25T02:12:26;99069.09;;;20.92;42.85
10176;BME280;18221;38.704;0.152;2022-11-25T02:14:58;99078.22;;;20.91;43.12
10176;BME280;18221;38.704;0.152;2022-11-25T02:17:26;99070.34;;;20.89;42.95
10176;BME280;18221;38.704;0.152;2022-11-25T02:20:09;99076.78;;;21.02;42.90
10176;BME280;18221;38.704;0.152;2022-11-25T02:22:50;99072.25;;;20.96;42.69
10176;BME280;18221;38.704;0.152;2022-11-25T02:25:27;99082.19;;;20.95;42.83
10176;BME280;18221;38.704;0.152;2022-11-25T02:28:08;99072.25;;;21.02;42.44
10176;BME280;18221;38.704;0.152;2022-11-25T02:30:37;99075.34;;;20.92;42.80
10176;BME280;18221;38.704;0.152;2022-11-25T02:33:05;99074.94;;;20.96;42.54
10176;BME280;18221;38.704;0.152;2022-11-25T02:35:36;99082.38;;;20.93;42.62
10176;BME280;18221;38.704;0.152;2022-11-25T02:38:08;99081.16;;;20.89;42.73
10176;BME280;18221;38.704;0.152;2022-11-25T02:40:44;99084.69;;;20.97;42.38
10176;BME280;18221;38.704;0.152;2022-11-25T02:43:14;99083.66;;;20.98;42.26
10176;BME280;18221;38.704;0.152;2022-11-25T02:45:55;99080.34;;;20.96;42.14
10176;BME280;18221;38.704;0.152;2022-11-25T02:48:24;99077.81;;;20.94;42.08
10176;BME280;18221;38.704;0.152;2022-11-25T02:50:55;99072.25;;;21.02;41.57
10176;BME280;18221;38.704;0.152;2022-11-25T02:53:24;99084.50;;;21.05;41.51
10176;BME280;18221;38.704;0.152;2022-11-25T02:55:54;99086.97;;;21.00;41.28
10176;BME280;18221;38.704;0.152;2022-11-25T02:58:22;99089.50;;;21.01;40.80
10176;BME280;18221;38.704;0.152;2022-11-25T03:00:50;99099.91;;;21.11;40.97
10176;BME280;18221;38.704;0.152;2022-11-25T03:03:20;99091.19;;;21.09;40.45
10176;BME280;18221;38.704;0.152;2022-11-25T03:05:49;99091.81;;;21.11;40.40
10176;BME280;18221;38.704;0.152;2022-11-25T03:08:17;99092.84;;;21.10;40.22
10176;BME280;18221;38.704;0.152;2022-11-25T03:10:45;99095.28;;;21.05;40.42
10176;BME280;18221;38.704;0.152;2022-11-25T03:13:14;99096.75;;;21.01;40.67
10176;BME280;18221;38.704;0.152;2022-11-25T03:15:42;99093.41;;;20.92;41.02
10176;BME280;18221;38.704;0.152;2022-11-25T03:18:10;99089.84;;;20.85;40.97
10176;BME280;18221;38.704;0.152;2022-11-25T03:20:38;99087.97;;;20.79;41.00
10176;BME280;18221;38.704;0.152;2022-11-25T03:23:06;99080.88;;;20.78;40.74
10176;BME280;18221;38.704;0.152;2022-11-25T03:25:35;99082.34;;;20.74;40.70
10176;BME280;18221;38.704;0.152;2022-11-25T03:28:08;99088.59;;;20.81;40.51
10176;BME280;18221;38.704;0.152;2022-11-25T03:30:38;99093.56;;;20.77;40.29
10176;BME280;18221;38.704;0.152;2022-11-25T03:33:06;99087.53;;;20.75;40.43
10176;BME280;18221;38.704;0.152;2022-11-25T03:35:34;99087.34;;;20.83;40.38
10176;BME280;18221;38.704;0.152;2022-11-25T03:38:02;99086.97;;;21.00;39.96
10176;BME280;18221;38.704;0.152;2022-11-25T03:40:30;99087.59;;;21.02;40.07
10176;BME280;18221;38.704;0.152;2022-11-25T03:42:59;99090.72;;;20.99;39.84
10176;BME280;18221;38.704;0.152;2022-11-25T03:45:27;99089.69;;;20.93;39.69
10176;BME280;18221;38.704;0.152;2022-11-25T03:47:56;99098.84;;;20.99;39.62
10176;BME280;18221;38.704;0.152;2022-11-25T03:50:24;99098.41;;;21.02;39.76
10176;BME280;18221;38.704;0.152;2022-11-25T03:52:52;99090.72;;;20.99;39.95
10176;BME280;18221;38.704;0.152;2022-11-25T03:55:20;99092.38;;;21.00;39.71
10176;BME280;18221;38.704;0.152;2022-11-25T03:57:48;99088.66;;;21.01;39.93
10176;BME280;18221;38.704;0.152;2022-11-25T04:00:16;99091.34;;;21.01;40.22
10176;BME280;18221;38.704;0.152;2022-11-25T04:02:44;99089.06;;;20.98;40.43
10176;BME280;18221;38.704;0.152;2022-11-25T04:05:16;99092.75;;;20.83;40.02
10176;BME280;18221;38.704;0.152;2022-11-25T04:07:44;99105.84;;;20.86;39.80
10176;BME280;18221;38.704;0.152;2022-11-25T04:10:12;99110.66;;;20.98;39.91
10176;BME280;18221;38.704;0.152;2022-11-25T04:12:40;99124.63;;;21.08;40.43
10176;BME280;18221;38.704;0.152;2022-11-25T04:15:15;99125.66;;;21.07;41.78
10176;BME280;18221;38.704;0.152;2022-11-25T04:17:44;99117.50;;;21.00;42.52
10176;BME280;18221;38.704;0.152;2022-11-25T04:20:14;99119.19;;;21.01;42.50
10176;BME280;18221;38.704;0.152;2022-11-25T04:22:42;99113.34;;;20.98;41.34
10176;BME280;18221;38.704;0.152;2022-11-25T04:25:11;99115.22;;;20.97;41.31
10176;BME280;18221;38.704;0.152;2022-11-25T04:27:38;99113.81;;;21.08;41.42
10176;BME280;18221;38.704;0.152;2022-11-25T04:30:08;99109.19;;;21.02;41.74
10176;BME280;18221;38.704;0.152;2022-11-25T04:32:37;99115.03;;;21.05;41.83
10176;BME280;18221;38.704;0.152;2022-11-25T04:35:06;99119.59;;;21.05;42.31
10176;BME280;18221;38.704;0.152;2022-11-25T04:37:35;99120.63;;;20.97;42.86
10176;BME280;18221;38.704;0.152;2022-11-25T04:40:05;99118.53;;;20.92;43.89
10176;BME280;18221;38.704;0.152;2022-11-25T04:42:38;99123.50;;;20.89;44.53
10176;BME280;18221;38.704;0.152;2022-11-25T04:45:09;99112.69;;;20.89;45.04
10176;BME280;18221;38.704;0.152;2022-11-25T04:47:38;99127.59;;;20.78;45.86
10176;BME280;18221;38.704;0.152;2022-11-25T04:50:11;99129.91;;;20.81;46.34
10176;BME280;18221;38.704;0.152;2022-11-25T04:52:41;99125.78;;;20.85;46.81
10176;BME280;18221;38.704;0.152;2022-11-25T04:55:10;99118.88;;;20.76;47.89
10176;BME280;18221;38.704;0.152;2022-11-25T04:57:38;99124.72;;;20.80;48.33
10176;BME280;18221;38.704;0.152;2022-11-25T05:00:08;99124.94;;;20.85;48.77
10176;BME280;18221;38.704;0.152;2022-11-25T05:02:36;99123.47;;;20.82;48.78
10176;BME280;18221;38.704;0.152;2022-11-25T05:05:06;99127.22;;;20.81;49.24
10176;BME280;18221;38.704;0.152;2022-11-25T05:07:34;99123.47;;;20.82;49.46
10176;BME280;18221;38.704;0.152;2022-11-25T05:10:05;99121.19;;;20.79;49.80
10176;BME280;18221;38.704;0.152;2022-11-25T05:12:34;99114.28;;;20.64;49.73
10176;BME280;18221;38.704;0.152;2022-11-25T05:15:03;99115.06;;;20.58;49.77
10176;BME280;18221;38.704;0.152;2022-11-25T05:17:32;99125.91;;;20.64;49.27
10176;BME280;18221;38.704;0.152;2022-11-25T05:20:00;99123.59;;;20.61;49.15
10176;BME280;18221;38.704;0.152;2022-11-25T05:22:31;99135.78;;;20.51;49.32
10176;BME280;18221;38.704;0.152;2022-11-25T05:25:01;99142.38;;;20.42;49.64
10176;BME280;18221;38.704;0.152;2022-11-25T05:27:30;99135.97;;;20.49;49.69
10176;BME280;18221;38.704;0.152;2022-11-25T05:29:58;99147.50;;;20.64;49.36
10176;BME280;18221;38.704;0.152;2022-11-25T05:32:26;99140.22;;;20.65;49.44
10176;BME280;18221;38.704;0.152;2022-11-25T05:34:54;99147.94;;;20.74;49.31
10176;BME280;18221;38.704;0.152;2022-11-25T05:37:22;99145.03;;;20.69;49.37
10176;BME280;18221;38.704;0.152;2022-11-25T05:39:50;99143.50;;;20.60;49.58
10176;BME280;18221;38.704;0.152;2022-11-25T05:42:19;99136.25;;;20.54;49.64
10176;BME280;18221;38.704;0.152;2022-11-25T05:44:47;99134.78;;;20.52;49.65
10176;BME280;18221;38.704;0.152;2022-11-25T05:47:16;99151.06;;;20.37;48.84
10176;BME280;18221;38.704;0.152;2022-11-25T05:49:44;99145.91;;;20.42;46.98
10176;BME280;18221;38.704;0.152;2022-11-25T05:52:12;99145.13;;;20.55;46.51
10176;BME280;18221;38.704;0.152;2022-11-25T05:54:40;99143.44;;;20.47;45.29
10176;BME280;18221;38.704;0.152;2022-11-25T05:57:08;99139.91;;;20.47;44.67
10176;BME280;18221;38.704;0.152;2022-11-25T05:59:37;99144.50;;;20.53;44.37
10176;BME280;18221;38.704;0.152;2022-11-25T06:02:05;99149.91;;;20.53;44.16
10176;BME280;18221;38.704;0.152;2022-11-25T06:04:33;99146.84;;;20.62;43.97
10176;BME280;18221;38.704;0.152;2022-11-25T06:07:01;99147.28;;;20.66;43.49
10176;BME280;18221;38.704;0.152;2022-11-25T06:09:29;99139.78;;;20.61;43.24
10176;BME280;18221;38.704;0.152;2022-11-25T06:11:57;99142.16;;;20.77;43.10
10176;BME280;18221;38.704;0.152;2022-11-25T06:14:24;99146.13;;;20.88;42.88
10176;BME280;18221;38.704;0.152;2022-11-25T06:16:54;99145.06;;;20.82;42.71
10176;BME280;18221;38.704;0.152;2022-11-25T06:19:22;99142.97;;;20.78;42.66
10176;BME280;18221;38.704;0.152;2022-11-25T06:21:50;99141.75;;;20.80;42.43
10176;BME280;18221;38.704;0.152;2022-11-25T06:24:17;99152.38;;;20.95;42.25
10176;BME280;18221;38.704;0.152;2022-11-25T06:26:45;99143.88;;;21.05;42.39
10176;BME280;18221;38.704;0.152;2022-11-25T06:29:14;99155.28;;;20.93;42.55
10176;BME280;18221;38.704;0.152;2022-11-25T06:31:42;99149.47;;;20.90;42.93
10176;BME280;18221;38.704;0.152;2022-11-25T06:34:11;99143.44;;;20.88;43.36
10176;BME280;18221;38.704;0.152;2022-11-25T06:36:39;99145.47;;;20.79;43.50
10176;BME280;18221;38.704;0.152;2022-11-25T06:39:07;99149.19;;;20.78;43.48
10176;BME280;18221;38.704;0.152;2022-11-25T06:41:35;99149.97;;;20.66;43.41
10176;BME280;18221;38.704;0.152;2022-11-25T06:44:04;99161.03;;;20.77;43.22
10176;BME280;18221;38.704;0.152;2022-11-25T06:46:31;99170.88;;;20.98;42.98
10176;BME280;18221;38.704;0.152;2022-11-25T06:49:00;99177.75;;;21.01;42.82
10176;BME280;18221;38.704;0.152;2022-11-25T06:51:30;99185.44;;;21.04;42.89
10176;BME280;18221;38.704;0.152;2022-11-25T06:53:58;99185.44;;;21.04;43.06
10176;BME280;18221;38.704;0.152;2022-11-25T06:56:27;99182.72;;;20.97;43.17
10176;BME280;18221;38.704;0.152;2022-11-25T06:58:55;99178.09;;;20.84;43.08
10176;BME280;18221;38.704;0.152;2022-11-25T07:01:26;99186.91;;;20.65;43.32
10176;BME280;18221;38.704;0.152;2022-11-25T07:04:04;99191.50;;;20.65;43.09
10176;BME280;18221;38.704;0.152;2022-11-25T07:06:34;99200.47;;;20.72;43.05
10176;BME280;18221;38.704;0.152;2022-11-25T07:09:02;99196.31;;;20.76;42.99
10176;BME280;18221;38.704;0.152;2022-11-25T07:11:33;99193.06;;;20.53;43.02
10176;BME280;18221;38.704;0.152;2022-11-25T07:14:03;99187.97;;;20.30;42.90
10176;BME280;18221;38.704;0.152;2022-11-25T07:16:32;99201.84;;;20.27;43.03
10176;BME280;18221;38.704;0.152;2022-11-25T07:19:02;99197.69;;;20.31;42.86
10176;BME280;18221;38.704;0.152;2022-11-25T07:21:35;99203.69;;;20.54;42.33
10176;BME280;18221;38.704;0.152;2022-11-25T07:24:06;99209.31;;;20.59;42.23
10176;BME280;18221;38.704;0.152;2022-11-25T07:26:37;99203.31;;;20.64;41.96
10176;BME280;18221;38.704;0.152;2022-11-25T07:29:07;99206.47;;;20.67;41.91
10176;BME280;18221;38.704;0.152;2022-11-25T07:31:40;99213.72;;;20.67;41.92
10176;BME280;18221;38.704;0.152;2022-11-25T07:34:13;99214.19;;;20.83;41.70
10176;BME280;18221;38.704;0.152;2022-11-25T07:36:44;99208.00;;;20.89;41.68
10176;BME280;18221;38.704;0.152;2022-11-25T07:39:16;99208.78;;;21.11;41.09
10176;BME280;18221;38.704;0.152;2022-11-25T07:41:48;99213.16;;;21.25;40.79
10176;BME280;18221;38.704;0.152;2022-11-25T07:44:17;99210.44;;;21.19;40.75
10176;BME280;18221;38.704;0.152;2022-11-25T07:46:49;99203.19;;;21.26;40.80
10176;BME280;18221;38.704;0.152;2022-11-25T07:49:21;99203.00;;;21.40;40.55
10176;BME280;18221;38.704;0.152;2022-11-25T07:51:54;99207.63;;;21.40;40.41
10176;BME280;18221;38.704;0.152;2022-11-25T07:54:25;99206.19;;;21.50;40.40
10176;BME280;18221;38.704;0.152;2022-11-25T07:56:53;99210.34;;;21.53;40.17
10176;BME280;18221;38.704;0.152;2022-11-25T07:59:22;99220.94;;;21.48;40.54
10176;BME280;18221;38.704;0.152;2022-11-25T08:01:52;99237.94;;;21.42;40.53
10176;BME280;18221;38.704;0.152;2022-11-25T08:04:21;99246.00;;;21.29;40.77
10176;BME280;18221;38.704;0.152;2022-11-25T08:06:52;99243.94;;;21.31;40.82
10176;BME280;18221;38.704;0.152;2022-11-25T08:09:22;99253.72;;;21.32;41.07
10176;BME280;18221;38.704;0.152;2022-11-25T08:11:51;99262.63;;;21.26;40.98
10176;BME280;18221;38.704;0.152;2022-11-25T08:14:19;99274.03;;;21.28;41.34
10176;BME280;18221;38.704;0.152;2022-11-25T08:16:47;99263.50;;;21.46;40.87
10176;BME280;18221;38.704;0.152;2022-11-25T08:19:18;99269.97;;;21.51;41.05
10176;BME280;18221;38.704;0.152;2022-11-25T08:21:46;99270.84;;;21.59;41.10
10176;BME280;18221;38.704;0.152;2022-11-25T08:24:18;99265.84;;;21.62;40.63
10176;BME280;18221;38.704;0.152;2022-11-25T08:26:47;99269.34;;;21.49;40.69
10176;BME280;18221;38.704;0.152;2022-11-25T08:29:17;99275.78;;;21.48;41.14
10176;BME280;18221;38.704;0.152;2022-11-25T08:31:46;99276.78;;;21.41;41.12
10176;BME280;18221;38.704;0.152;2022-11-25T08:34:18;99278.44;;;21.35;41.31
10176;BME280;18221;38.704;0.152;2022-11-25T08:36:46;99275.28;;;21.19;41.36
10176;BME280;18221;38.704;0.152;2022-11-25T08:39:18;99284.44;;;21.24;41.65
10176;BME280;18221;38.704;0.152;2022-11-25T08:41:46;99283.97;;;21.14;41.55
10176;BME280;18221;38.704;0.152;2022-11-25T08:44:14;99281.44;;;21.06;41.88
10176;BME280;18221;38.704;0.152;2022-11-25T08:46:42;99275.03;;;21.14;41.79
10176;BME280;18221;38.704;0.152;2022-11-25T08:49:11;99271.84;;;21.44;41.68
10176;BME280;18221;38.704;0.152;2022-11-25T08:51:42;99283.34;;;21.66;41.18
10176;BME280;18221;38.704;0.152;2022-11-25T08:54:09;99283.94;;;21.55;41.65
10176;BME280;18221;38.704;0.152;2022-11-25T08:56:39;99291.22;;;21.68;41.52
10176;BME280;18221;38.704;0.152;2022-11-25T08:59:07;99302.53;;;21.84;41.02
10176;BME280;18221;38.704;0.152;2022-11-25T09:01:35;99329.19;;;22.00;40.54
10176;BME280;18221;38.704;0.152;2022-11-25T09:04:03;99325.91;;;22.18;40.46
10176;BME280;18221;38.704;0.152;2022-11-25T09:06:30;99331.09;;;22.20;40.39
10176;BME280;18221;38.704;0.152;2022-11-25T09:08:59;99330.50;;;22.31;40.47
10176;BME280;18221;38.704;0.152;2022-11-25T09:11:27;99334.44;;;22.28;40.24
10176;BME280;18221;38.704;0.152;2022-11-25T09:13:56;99326.72;;;22.32;40.09
10176;BME280;18221;38.704;0.152;2022-11-25T09:16:24;99322.56;;;22.42;39.85
10176;BME280;18221;38.704;0.152;2022-11-25T09:18:52;99327.56;;;22.26;40.13
10176;BME280;18221;38.704;0.152;2022-11-25T09:21:20;99323.63;;;22.28;40.13
10176;BME280;18221;38.704;0.152;2022-11-25T09:23:53;99322.56;;;22.09;40.65
10176;BME280;18221;38.704;0.152;2022-11-25T09:26:25;99316.13;;;22.17;40.56
10176;BME280;18221;38.704;0.152;2022-11-25T09:28:58;99334.84;;;22.05;40.57
10176;BME280;18221;38.704;0.152;2022-11-25T09:31:26;99338.16;;;22.07;40.71
10176;BME280;18221;38.704;0.152;2022-11-25T09:33:56;99342.72;;;22.13;40.84
10176;BME280;18221;38.704;0.152;2022-11-25T09:36:24;99345.66;;;22.05;40.95
10176;BME280;18221;38.704;0.152;2022-11-25T09:38:52;99351.31;;;22.24;40.99
10176;BME280;18221;38.704;0.152;2022-11-25T09:41:46;99348.81;;;22.35;41.09
10176;BME280;18221;38.704;0.152;2022-11-25T09:44:52;99342.56;;;22.54;40.57
10176;BME280;18221;38.704;0.152;2022-11-25T09:47:51;99344.22;;;22.55;40.38
10176;BME280;18221;38.704;0.152;2022-11-25T09:50:40;99344.69;;;22.72;40.30
10176;BME280;18221;38.704;0.152;2022-11-25T09:53:35;99346.75;;;22.83;40.24
10176;BME280;18221;38.704;0.152;2022-11-25T09:56:17;99342.34;;;22.95;40.25
10176;BME280;18221;38.704;0.152;2022-11-25T09:58:52;99341.53;;;22.88;40.24
10176;BME280;18221;38.704;0.152;2022-11-25T10:01:26;99344.69;;;22.72;40.80
10176;BME280;18221;38.704;0.152;2022-11-25T10:04:01;99335.50;;;22.60;40.34
10176;BME280;18221;38.704;0.152;2022-11-25T10:06:35;99334.66;;;22.46;40.17
10176;BME280;18221;38.704;0.152;2022-11-25T10:09:13;99336.13;;;22.62;39.69
10176;BME280;18221;38.704;0.152;2022-11-25T10:11:50;99328.66;;;22.64;40.35
10176;BME280;18221;38.704;0.152;2022-11-25T10:14:29;99327.59;;;22.52;39.99
10176;BME280;18221;38.704;0.152;2022-11-25T10:17:12;99327.38;;;22.34;39.85
10176;BME280;18221;38.704;0.152;2022-11-25T10:19:54;99330.50;;;22.31;39.87
10176;BME280;18221;38.704;0.152;2022-11-25T10:22:27;99324.03;;;22.19;40.13
10176;BME280;18221;38.704;0.152;2022-11-25T10:25:01;99331.25;;;21.98;40.42
10176;BME280;18221;38.704;0.152;2022-11-25T10:27:37;99335.88;;;22.04;40.31
10176;BME280;18221;38.704;0.152;2022-11-25T10:30:17;99338.59;;;22.18;40.39
10176;BME280;18221;38.704;0.152;2022-11-25T10:32:52;99321.75;;;22.16;40.47
10176;BME280;18221;38.704;0.152;2022-11-25T10:35:28;99331.28;;;22.05;40.62
10176;BME280;18221;38.704;0.152;2022-11-25T10:38:01;99328.59;;;22.05;40.96
10176;BME280;18221;38.704;0.152;2022-11-25T10:40:29;99330.22;;;22.06;40.47
10176;BME280;18221;38.704;0.152;2022-11-25T10:42:57;99332.31;;;21.97;40.62
10176;BME280;18221;38.704;0.152;2022-11-25T10:45:36;99321.94;;;22.21;40.21
10176;BME280;18221;38.704;0.152;2022-11-25T10:48:23;99311.97;;;22.34;40.00
10176;BME280;18221;38.704;0.152;2022-11-25T10:51:11;99298.22;;;22.23;39.75
10176;BME280;18221;38.704;0.152;2022-11-25T10:54:12;99282.59;;;21.98;39.17
10176;BME280;18221;38.704;0.152;2022-11-25T10:56:49;99276.38;;;22.04;38.57
10176;BME280;18221;38.704;0.152;2022-11-25T10:59:28;99301.34;;;22.33;38.79
10176;BME280;18221;38.704;0.152;2022-11-25T11:02:16;99295.13;;;22.52;38.43
10176;BME280;18221;38.704;0.152;2022-11-25T11:04:57;99299.94;;;22.63;38.40
10176;BME280;18221;38.704;0.152;2022-11-25T11:07:28;99295.34;;;22.70;38.14
10176;BME280;18221;38.704;0.152;2022-11-25T11:10:25;99281.56;;;22.78;36.86
10176;BME280;18221;38.704;0.152;2022-11-25T11:12:57;99291.34;;;22.79;36.79
10176;BME280;18221;38.704;0.152;2022-11-25T11:15:28;99285.09;;;22.59;36.47
10176;BME280;18221;38.704;0.152;2022-11-25T11:17:59;99288.47;;;22.67;37.26
10176;BME280;18221;38.704;0.152;2022-11-25T11:20:30;99287.63;;;22.67;37.65
10176;BME280;18221;38.704;0.152;2022-11-25T11:23:04;99292.00;;;22.74;37.65
10176;BME280;18221;38.704;0.152;2022-11-25T11:25:37;99295.69;;;22.87;37.04
10176;BME280;18221;38.704;0.152;2022-11-25T11:28:29;99295.97;;;22.79;37.07
10176;BME280;18221;38.704;0.152;2022-11-25T11:31:03;99286.34;;;22.76;36.72
10176;BME280;18221;38.704;0.152;2022-11-25T11:33:40;99299.50;;;22.72;36.75
10176;BME280;18221;38.704;0.152;2022-11-25T11:36:24;99297.41;;;22.74;36.87
10176;BME280;18221;38.704;0.152;2022-11-25T11:39:16;99285.72;;;22.74;37.09
10176;BME280;18221;38.704;0.152;2022-11-25T11:41:54;99293.84;;;22.94;36.47
10176;BME280;18221;38.704;0.152;2022-11-25T11:44:52;99291.31;;;22.92;36.58
10176;BME280;18221;38.704;0.152;2022-11-25T11:47:31;99288.78;;;23.10;36.19
10176;BME280;18221;38.704;0.152;2022-11-25T11:50:26;99291.19;;;23.31;36.98
10176;BME280;18221;38.704;0.152;2022-11-25T11:53:09;99287.44;;;23.39;36.93
10176;BME280;18221;38.704;0.152;2022-11-25T11:55:56;99287.03;;;23.42;36.84
10176;BME280;18221;38.704;0.152;2022-11-25T11:58:41;99284.97;;;23.24;36.76
10176;BME280;18221;38.704;0.152;2022-11-25T12:01:33;99271.50;;;23.05;35.80
10176;BME280;18221;38.704;0.152;2022-11-25T12:04:14;99278.78;;;23.11;35.05
10176;BME280;18221;38.704;0.152;2022-11-25T12:07:01;99273.31;;;23.24;35.01
10176;BME280;18221;38.704;0.152;2022-11-25T12:09:44;99276.81;;;23.31;34.89
10176;BME280;18221;38.704;0.152;2022-11-25T12:12:17;99274.97;;;23.38;34.20
10176;BME280;18221;38.704;0.152;2022-11-25T12:14:49;99262.88;;;23.27;33.71
10176;BME280;18221;38.704;0.152;2022-11-25T12:17:24;99267.69;;;23.25;33.83
10176;BME280;18221;38.704;0.152;2022-11-25T12:20:02;99271.59;;;23.43;32.86
10176;BME280;18221;38.704;0.152;2022-11-25T12:22:37;99280.75;;;23.48;33.41
10176;BME280;18221;38.704;0.152;2022-11-25T12:25:18;99276.00;;;23.37;32.81
10176;BME280;18221;38.704;0.152;2022-11-25T12:27:56;99270.75;;;23.42;33.00
10176;BME280;18221;38.704;0.152;2022-11-25T12:30:33;99270.75;;;23.49;32.54
10176;BME280;18221;38.704;0.152;2022-11-25T12:33:11;99268.25;;;23.34;33.01
10176;BME280;18221;38.704;0.152;2022-11-25T12:35:55;99276.59;;;23.46;31.75
10176;BME280;18221;38.704;0.152;2022-11-25T12:38:36;99274.41;;;23.61;31.38
10176;BME280;18221;38.704;0.152;2022-11-25T12:41:20;99271.53;;;23.56;30.94
10176;BME280;18221;38.704;0.152;2022-11-25T12:43:54;99279.47;;;23.51;31.08
10176;BME280;18221;38.704;0.152;2022-11-25T12:46:34;99271.47;;;23.69;30.86
10176;BME280;18221;38.704;0.152;2022-11-25T12:49:06;99280.97;;;23.78;30.30
10176;BME280;18221;38.704;0.152;2022-11-25T12:52:25;99278.56;;;23.70;29.33
10176;BME280;18221;38.704;0.152;2022-11-25T12:55:16;99272.41;;;23.81;29.31
10176;BME280;18221;38.704;0.152;2022-11-25T13:01:34;99279.53;;;23.82;28.92
10176;BME280;18221;38.704;0.152;2022-11-25T13:04:31;99281.88;;;23.72;29.27
10176;BME280;18221;38.704;0.152;2022-11-25T13:07:28;99277.25;;;23.79;28.84
10176;BME280;18221;38.704;0.152;2022-11-25T13:10:35;99269.97;;;23.73;29.31
10176;BME280;18221;38.704;0.152;2022-11-25T13:13:44;99285.63;;;23.71;29.29
10176;BME280;18221;38.704;0.152;2022-11-25T13:16:15;99283.25;;;23.87;29.74
10176;BME280;18221;38.704;0.152;2022-11-25T13:18:45;99277.09;;;23.98;29.25
10176;BME280;18221;38.704;0.152;2022-11-25T13:21:15;99290.53;;;23.87;29.35
10176;BME280;18221;38.704;0.152;2022-11-25T13:23:48;99289.03;;;23.91;29.25
10176;BME280;18221;38.704;0.152;2022-11-25T13:26:46;99294.34;;;23.79;28.72
10176;BME280;18221;38.704;0.152;2022-11-25T13:29:59;99300.28;;;24.01;29.18
10176;BME280;18221;38.704;0.152;2022-11-25T13:32:37;99297.59;;;23.94;29.06
10176;BME280;18221;38.704;0.152;2022-11-25T13:35:30;99277.81;;;23.87;28.98
10176;BME280;18221;38.704;0.152;2022-11-25T13:37:58;99290.94;;;23.90;29.17
10176;BME280;18221;38.704;0.152;2022-11-25T13:40:37;99292.16;;;23.94;28.71
10176;BME280;18221;38.704;0.152;2022-11-25T13:43:20;99286.50;;;23.96;28.81